sensor_id;sensor_type;location;lat;lon;timestamp;temperature;humidity
43087;DHT22;28708;52.224;6.924;2022-09-01T00:00:49;15.40;99.90
43087;DHT22;28708;52.224;6.924;2022-09-01T00:03:16;15.40;99.90
43087;DHT22;28708;52.224;6.924;2022-09-01T00:05:43;15.30;99.90
43087;DHT22;28708;52.224;6.924;2022-09-01T00:08:12;15.30;99.90
43087;DHT22;28708;52.224;6.924;2022-09-01T00:10:38;15.20;99.90
43087;DHT22;28708;52.224;6.924;2022-09-01T00:13:05;15.30;99.90
43087;DHT22;28708;52.224;6.924;2022-09-01T00:15:35;15.30;99.90
43087;DHT22;28708;52.224;6.924;2022-09-01T00:18:01;15.30;99.90
43087;DHT22;28708;52.224;6.924;2022-09-01T00:20:28;15.20;99.90
43087;DHT22;28708;52.224;6.924;2022-09-01T00:22:53;15.20;99.90
43087;DHT22;28708;52.224;6.924;2022-09-01T00:25:20;15.20;99.90
43087;DHT22;28708;52.224;6.924;2022-09-01T00:27:48;15.20;99.90
43087;DHT22;28708;52.224;6.924;2022-09-01T00:30:14;15.10;99.90
43087;DHT22;28708;52.224;6.924;2022-09-01T00:32:40;15.10;99.90
43087;DHT22;28708;52.224;6.924;2022-09-01T00:35:13;15.00;99.90
43087;DHT22;28708;52.224;6.924;2022-09-01T00:37:39;15.00;99.90
43087;DHT22;28708;52.224;6.924;2022-09-01T00:40:06;15.00;99.90
43087;DHT22;28708;52.224;6.924;2022-09-01T00:42:32;15.00;99.90
43087;DHT22;28708;52.224;6.924;2022-09-01T00:44:57;15.00;99.90
43087;DHT22;28708;52.224;6.924;2022-09-01T00:47:23;15.00;99.90
43087;DHT22;28708;52.224;6.924;2022-09-01T00:49:50;15.00;99.90
43087;DHT22;28708;52.224;6.924;2022-09-01T00:52:28;14.90;99.90
43087;DHT22;28708;52.224;6.924;2022-09-01T00:54:58;14.90;99.90
43087;DHT22;28708;52.224;6.924;2022-09-01T00:57:27;14.80;99.90
43087;DHT22;28708;52.224;6.924;2022-09-01T00:59:59;14.80;99.90
43087;DHT22;28708;52.224;6.924;2022-09-01T01:02:26;14.80;99.90
43087;DHT22;28708;52.224;6.924;2022-09-01T01:04:52;14.80;99.90
43087;DHT22;28708;52.224;6.924;2022-09-01T01:07:21;14.70;99.90
43087;DHT22;28708;52.224;6.924;2022-09-01T01:09:47;14.70;99.90
43087;DHT22;28708;52.224;6.924;2022-09-01T01:12:15;14.70;99.90
43087;DHT22;28708;52.224;6.924;2022-09-01T01:14:48;14.60;99.90
43087;DHT22;28708;52.224;6.924;2022-09-01T01:17:19;14.60;99.90
43087;DHT22;28708;52.224;6.924;2022-09-01T01:19:49;14.60;99.90
43087;DHT22;28708;52.224;6.924;2022-09-01T01:28:20;14.60;99.90
43087;DHT22;28708;52.224;6.924;2022-09-01T01:30:55;14.60;99.90
43087;DHT22;28708;52.224;6.924;2022-09-01T01:33:26;14.50;99.90
43087;DHT22;28708;52.224;6.924;2022-09-01T01:35:53;14.50;99.90
43087;DHT22;28708;52.224;6.924;2022-09-01T01:38:24;14.50;99.90
43087;DHT22;28708;52.224;6.924;2022-09-01T01:40:51;14.50;99.90
43087;DHT22;28708;52.224;6.924;2022-09-01T01:43:20;14.50;99.90
43087;DHT22;28708;52.224;6.924;2022-09-01T01:45:50;14.50;99.90
43087;DHT22;28708;52.224;6.924;2022-09-01T01:48:20;14.50;99.90
43087;DHT22;28708;52.224;6.924;2022-09-01T01:50:52;14.40;99.90
43087;DHT22;28708;52.224;6.924;2022-09-01T01:53:19;14.40;99.90
43087;DHT22;28708;52.224;6.924;2022-09-01T01:55:46;14.40;99.90
43087;DHT22;28708;52.224;6.924;2022-09-01T01:58:17;14.40;99.90
43087;DHT22;28708;52.224;6.924;2022-09-01T02:00:47;14.40;99.90
43087;DHT22;28708;52.224;6.924;2022-09-01T02:03:15;14.40;99.90
43087;DHT22;28708;52.224;6.924;2022-09-01T02:05:45;14.40;99.90
43087;DHT22;28708;52.224;6.924;2022-09-01T02:08:11;14.30;99.90
43087;DHT22;28708;52.224;6.924;2022-09-01T02:10:41;14.40;99.90
43087;DHT22;28708;52.224;6.924;2022-09-01T02:13:11;14.30;99.90
43087;DHT22;28708;52.224;6.924;2022-09-01T02:15:47;14.20;99.90
43087;DHT22;28708;52.224;6.924;2022-09-01T02:18:15;14.20;99.90
43087;DHT22;28708;52.224;6.924;2022-09-01T02:20:44;14.20;99.90
43087;DHT22;28708;52.224;6.924;2022-09-01T02:23:10;14.20;99.90
43087;DHT22;28708;52.224;6.924;2022-09-01T02:25:40;14.20;99.90
43087;DHT22;28708;52.224;6.924;2022-09-01T02:28:11;14.20;99.90
43087;DHT22;28708;52.224;6.924;2022-09-01T02:30:47;14.20;99.90
43087;DHT22;28708;52.224;6.924;2022-09-01T02:33:15;14.20;99.90
43087;DHT22;28708;52.224;6.924;2022-09-01T02:35:50;14.20;99.90
43087;DHT22;28708;52.224;6.924;2022-09-01T02:38:17;14.10;99.90
43087;DHT22;28708;52.224;6.924;2022-09-01T02:40:46;14.10;99.90
43087;DHT22;28708;52.224;6.924;2022-09-01T02:43:14;14.10;99.90
43087;DHT22;28708;52.224;6.924;2022-09-01T02:45:51;14.10;99.90
43087;DHT22;28708;52.224;6.924;2022-09-01T02:48:34;14.10;99.90
43087;DHT22;28708;52.224;6.924;2022-09-01T02:51:08;14.00;99.90
43087;DHT22;28708;52.224;6.924;2022-09-01T02:53:36;13.90;99.90
43087;DHT22;28708;52.224;6.924;2022-09-01T02:56:08;13.90;99.90
43087;DHT22;28708;52.224;6.924;2022-09-01T02:58:37;13.90;99.90
43087;DHT22;28708;52.224;6.924;2022-09-01T03:01:14;13.90;99.90
43087;DHT22;28708;52.224;6.924;2022-09-01T03:03:45;13.90;99.90
43087;DHT22;28708;52.224;6.924;2022-09-01T03:06:11;13.80;99.90
43087;DHT22;28708;52.224;6.924;2022-09-01T03:08:37;13.80;99.90
43087;DHT22;28708;52.224;6.924;2022-09-01T03:11:07;13.80;99.90
43087;DHT22;28708;52.224;6.924;2022-09-01T03:13:37;13.70;99.90
43087;DHT22;28708;52.224;6.924;2022-09-01T03:16:05;13.70;99.90
43087;DHT22;28708;52.224;6.924;2022-09-01T03:18:32;13.70;99.90
43087;DHT22;28708;52.224;6.924;2022-09-01T03:20:59;13.70;99.90
43087;DHT22;28708;52.224;6.924;2022-09-01T03:23:28;13.70;99.90
43087;DHT22;28708;52.224;6.924;2022-09-01T03:25:56;13.70;99.90
43087;DHT22;28708;52.224;6.924;2022-09-01T03:28:22;13.60;99.90
43087;DHT22;28708;52.224;6.924;2022-09-01T03:30:51;13.60;99.90
43087;DHT22;28708;52.224;6.924;2022-09-01T03:33:19;13.50;99.90
43087;DHT22;28708;52.224;6.924;2022-09-01T03:35:46;13.50;99.90
43087;DHT22;28708;52.224;6.924;2022-09-01T03:38:12;13.50;99.90
43087;DHT22;28708;52.224;6.924;2022-09-01T03:40:45;13.50;99.90
43087;DHT22;28708;52.224;6.924;2022-09-01T03:43:12;13.50;99.90
43087;DHT22;28708;52.224;6.924;2022-09-01T03:45:41;13.40;99.90
43087;DHT22;28708;52.224;6.924;2022-09-01T03:48:09;13.40;99.90
43087;DHT22;28708;52.224;6.924;2022-09-01T03:50:39;13.40;99.90
43087;DHT22;28708;52.224;6.924;2022-09-01T03:53:06;13.40;99.90
43087;DHT22;28708;52.224;6.924;2022-09-01T03:55:34;13.40;99.90
43087;DHT22;28708;52.224;6.924;2022-09-01T03:58:03;13.30;99.90
43087;DHT22;28708;52.224;6.924;2022-09-01T04:00:34;13.30;99.90
43087;DHT22;28708;52.224;6.924;2022-09-01T04:03:02;13.20;99.90
43087;DHT22;28708;52.224;6.924;2022-09-01T04:05:30;13.20;99.90
43087;DHT22;28708;52.224;6.924;2022-09-01T04:08:01;13.20;99.90
43087;DHT22;28708;52.224;6.924;2022-09-01T04:10:33;13.10;99.90
43087;DHT22;28708;52.224;6.924;2022-09-01T04:13:00;13.10;99.90
43087;DHT22;28708;52.224;6.924;2022-09-01T04:15:27;13.10;99.90
43087;DHT22;28708;52.224;6.924;2022-09-01T04:17:54;13.10;99.90
43087;DHT22;28708;52.224;6.924;2022-09-01T04:20:41;13.10;99.90
43087;DHT22;28708;52.224;6.924;2022-09-01T04:26:09;13.10;99.90
43087;DHT22;28708;52.224;6.924;2022-09-01T04:28:42;13.10;99.90
43087;DHT22;28708;52.224;6.924;2022-09-01T04:31:14;13.10;99.90
43087;DHT22;28708;52.224;6.924;2022-09-01T04:33:46;13.10;99.90
43087;DHT22;28708;52.224;6.924;2022-09-01T04:36:16;13.10;99.90
43087;DHT22;28708;52.224;6.924;2022-09-01T04:38:47;13.10;99.90
43087;DHT22;28708;52.224;6.924;2022-09-01T04:41:14;13.00;99.90
43087;DHT22;28708;52.224;6.924;2022-09-01T04:43:47;13.10;99.90
43087;DHT22;28708;52.224;6.924;2022-09-01T04:46:14;13.00;99.90
43087;DHT22;28708;52.224;6.924;2022-09-01T04:48:42;13.00;99.90
43087;DHT22;28708;52.224;6.924;2022-09-01T04:51:11;13.00;99.90
43087;DHT22;28708;52.224;6.924;2022-09-01T04:53:55;13.00;99.90
43087;DHT22;28708;52.224;6.924;2022-09-01T04:56:23;13.00;99.90
43087;DHT22;28708;52.224;6.924;2022-09-01T04:59:02;13.00;99.90
43087;DHT22;28708;52.224;6.924;2022-09-01T05:01:33;13.00;99.90
43087;DHT22;28708;52.224;6.924;2022-09-01T05:04:10;12.90;99.90
43087;DHT22;28708;52.224;6.924;2022-09-01T05:06:40;12.90;99.90
43087;DHT22;28708;52.224;6.924;2022-09-01T05:09:08;13.00;99.90
43087;DHT22;28708;52.224;6.924;2022-09-01T05:11:55;12.90;99.90
43087;DHT22;28708;52.224;6.924;2022-09-01T05:14:25;13.00;99.90
43087;DHT22;28708;52.224;6.924;2022-09-01T05:16:57;13.00;99.90
43087;DHT22;28708;52.224;6.924;2022-09-01T05:19:25;13.00;99.90
43087;DHT22;28708;52.224;6.924;2022-09-01T05:21:57;12.90;99.90
43087;DHT22;28708;52.224;6.924;2022-09-01T05:24:24;13.00;99.90
43087;DHT22;28708;52.224;6.924;2022-09-01T05:26:57;13.00;99.90
43087;DHT22;28708;52.224;6.924;2022-09-01T05:29:25;13.00;99.90
43087;DHT22;28708;52.224;6.924;2022-09-01T05:31:53;13.10;99.90
43087;DHT22;28708;52.224;6.924;2022-09-01T05:34:24;13.10;99.90
43087;DHT22;28708;52.224;6.924;2022-09-01T05:36:57;13.10;99.90
43087;DHT22;28708;52.224;6.924;2022-09-01T05:39:25;13.10;99.90
43087;DHT22;28708;52.224;6.924;2022-09-01T05:41:51;13.10;99.90
43087;DHT22;28708;52.224;6.924;2022-09-01T05:44:19;13.20;99.90
43087;DHT22;28708;52.224;6.924;2022-09-01T05:46:48;13.20;99.90
43087;DHT22;28708;52.224;6.924;2022-09-01T05:49:16;13.20;99.90
43087;DHT22;28708;52.224;6.924;2022-09-01T05:51:49;13.20;99.90
43087;DHT22;28708;52.224;6.924;2022-09-01T05:54:20;13.20;99.90
43087;DHT22;28708;52.224;6.924;2022-09-01T05:56:48;13.20;99.90
43087;DHT22;28708;52.224;6.924;2022-09-01T05:59:18;13.30;99.90
43087;DHT22;28708;52.224;6.924;2022-09-01T06:01:46;13.30;99.90
43087;DHT22;28708;52.224;6.924;2022-09-01T06:04:13;13.40;99.90
43087;DHT22;28708;52.224;6.924;2022-09-01T06:06:43;13.40;99.90
43087;DHT22;28708;52.224;6.924;2022-09-01T06:09:16;13.40;99.90
43087;DHT22;28708;52.224;6.924;2022-09-01T06:11:45;13.50;99.90
43087;DHT22;28708;52.224;6.924;2022-09-01T06:14:16;13.50;99.90
43087;DHT22;28708;52.224;6.924;2022-09-01T06:16:44;13.70;99.90
43087;DHT22;28708;52.224;6.924;2022-09-01T06:19:12;13.70;99.90
43087;DHT22;28708;52.224;6.924;2022-09-01T06:21:42;13.80;99.90
43087;DHT22;28708;52.224;6.924;2022-09-01T06:24:08;13.80;99.90
43087;DHT22;28708;52.224;6.924;2022-09-01T06:26:35;13.90;99.90
43087;DHT22;28708;52.224;6.924;2022-09-01T06:29:06;13.90;99.90
43087;DHT22;28708;52.224;6.924;2022-09-01T06:31:36;13.90;99.90
43087;DHT22;28708;52.224;6.924;2022-09-01T06:34:10;13.90;99.90
43087;DHT22;28708;52.224;6.924;2022-09-01T06:36:38;13.90;99.90
43087;DHT22;28708;52.224;6.924;2022-09-01T06:39:07;14.10;99.90
43087;DHT22;28708;52.224;6.924;2022-09-01T06:41:34;14.10;99.90
43087;DHT22;28708;52.224;6.924;2022-09-01T06:44:07;14.30;99.90
43087;DHT22;28708;52.224;6.924;2022-09-01T06:46:33;14.40;99.90
43087;DHT22;28708;52.224;6.924;2022-09-01T06:49:02;14.50;99.90
43087;DHT22;28708;52.224;6.924;2022-09-01T06:51:28;14.60;99.90
43087;DHT22;28708;52.224;6.924;2022-09-01T06:53:58;14.70;99.90
43087;DHT22;28708;52.224;6.924;2022-09-01T06:56:30;14.70;99.90
43087;DHT22;28708;52.224;6.924;2022-09-01T06:59:00;14.90;99.90
43087;DHT22;28708;52.224;6.924;2022-09-01T07:01:29;14.90;99.90
43087;DHT22;28708;52.224;6.924;2022-09-01T07:03:56;15.00;99.90
43087;DHT22;28708;52.224;6.924;2022-09-01T07:06:34;15.10;99.90
43087;DHT22;28708;52.224;6.924;2022-09-01T07:09:15;15.30;99.90
43087;DHT22;28708;52.224;6.924;2022-09-01T07:11:43;15.40;99.90
43087;DHT22;28708;52.224;6.924;2022-09-01T07:14:10;15.50;99.90
43087;DHT22;28708;52.224;6.924;2022-09-01T07:16:38;15.60;99.90
43087;DHT22;28708;52.224;6.924;2022-09-01T07:19:08;15.70;99.90
43087;DHT22;28708;52.224;6.924;2022-09-01T07:21:59;15.80;99.90
43087;DHT22;28708;52.224;6.924;2022-09-01T07:24:25;15.90;99.90
43087;DHT22;28708;52.224;6.924;2022-09-01T07:27:11;16.00;99.90
43087;DHT22;28708;52.224;6.924;2022-09-01T07:29:38;16.10;99.90
43087;DHT22;28708;52.224;6.924;2022-09-01T07:32:04;16.20;99.90
43087;DHT22;28708;52.224;6.924;2022-09-01T07:34:31;16.40;99.90
43087;DHT22;28708;52.224;6.924;2022-09-01T07:36:59;16.50;99.90
43087;DHT22;28708;52.224;6.924;2022-09-01T07:39:26;16.60;99.90
43087;DHT22;28708;52.224;6.924;2022-09-01T07:42:19;16.60;99.90
43087;DHT22;28708;52.224;6.924;2022-09-01T07:45:05;16.70;99.90
43087;DHT22;28708;52.224;6.924;2022-09-01T07:47:42;16.90;99.90
43087;DHT22;28708;52.224;6.924;2022-09-01T07:50:11;17.10;99.90
43087;DHT22;28708;52.224;6.924;2022-09-01T07:52:41;17.20;99.90
43087;DHT22;28708;52.224;6.924;2022-09-01T07:55:10;17.30;99.90
43087;DHT22;28708;52.224;6.924;2022-09-01T07:57:38;17.40;99.90
43087;DHT22;28708;52.224;6.924;2022-09-01T08:00:11;17.60;99.90
43087;DHT22;28708;52.224;6.924;2022-09-01T08:02:41;17.80;99.90
43087;DHT22;28708;52.224;6.924;2022-09-01T08:05:14;17.90;99.90
43087;DHT22;28708;52.224;6.924;2022-09-01T08:07:43;18.00;99.90
43087;DHT22;28708;52.224;6.924;2022-09-01T08:10:12;18.10;99.90
43087;DHT22;28708;52.224;6.924;2022-09-01T08:12:39;18.20;99.90
43087;DHT22;28708;52.224;6.924;2022-09-01T08:15:07;18.30;99.90
43087;DHT22;28708;52.224;6.924;2022-09-01T08:17:36;18.30;99.90
43087;DHT22;28708;52.224;6.924;2022-09-01T08:20:05;18.50;99.90
43087;DHT22;28708;52.224;6.924;2022-09-01T08:23:04;18.60;99.90
43087;DHT22;28708;52.224;6.924;2022-09-01T08:25:34;18.60;99.90
43087;DHT22;28708;52.224;6.924;2022-09-01T08:28:01;18.70;99.90
43087;DHT22;28708;52.224;6.924;2022-09-01T08:30:27;18.80;99.90
43087;DHT22;28708;52.224;6.924;2022-09-01T08:32:54;18.90;99.90
43087;DHT22;28708;52.224;6.924;2022-09-01T08:35:21;19.10;99.90
43087;DHT22;28708;52.224;6.924;2022-09-01T08:37:47;19.20;99.90
43087;DHT22;28708;52.224;6.924;2022-09-01T08:40:16;19.30;99.90
43087;DHT22;28708;52.224;6.924;2022-09-01T08:47:56;19.60;99.90
43087;DHT22;28708;52.224;6.924;2022-09-01T08:50:24;19.60;99.90
43087;DHT22;28708;52.224;6.924;2022-09-01T08:53:32;19.70;99.90
43087;DHT22;28708;52.224;6.924;2022-09-01T08:56:01;20.00;99.90
43087;DHT22;28708;52.224;6.924;2022-09-01T08:58:29;20.00;99.90
43087;DHT22;28708;52.224;6.924;2022-09-01T09:01:22;20.00;99.90
43087;DHT22;28708;52.224;6.924;2022-09-01T09:06:24;20.40;99.90
43087;DHT22;28708;52.224;6.924;2022-09-01T09:09:05;20.50;99.90
43087;DHT22;28708;52.224;6.924;2022-09-01T09:16:57;20.80;99.90
43087;DHT22;28708;52.224;6.924;2022-09-01T09:19:31;21.10;99.90
43087;DHT22;28708;52.224;6.924;2022-09-01T09:22:01;21.50;99.90
43087;DHT22;28708;52.224;6.924;2022-09-01T09:27:23;25.50;99.90
43087;DHT22;28708;52.224;6.924;2022-09-01T09:30:12;28.50;94.50
43087;DHT22;28708;52.224;6.924;2022-09-01T09:32:59;28.90;91.10
43087;DHT22;28708;52.224;6.924;2022-09-01T09:35:32;29.00;88.60
43087;DHT22;28708;52.224;6.924;2022-09-01T09:51:31;30.80;76.50
43087;DHT22;28708;52.224;6.924;2022-09-01T09:56:41;30.70;74.30
43087;DHT22;28708;52.224;6.924;2022-09-01T09:59:36;30.50;75.20
43087;DHT22;28708;52.224;6.924;2022-09-01T10:02:24;31.00;73.00
43087;DHT22;28708;52.224;6.924;2022-09-01T10:04:51;29.80;74.10
43087;DHT22;28708;52.224;6.924;2022-09-01T10:09:50;30.90;72.50
43087;DHT22;28708;52.224;6.924;2022-09-01T10:12:17;30.20;71.80
43087;DHT22;28708;52.224;6.924;2022-09-01T10:14:53;27.30;75.40
43087;DHT22;28708;52.224;6.924;2022-09-01T10:17:33;27.70;76.70
43087;DHT22;28708;52.224;6.924;2022-09-01T10:20:02;29.40;73.60
43087;DHT22;28708;52.224;6.924;2022-09-01T10:22:34;30.30;71.50
43087;DHT22;28708;52.224;6.924;2022-09-01T10:25:02;30.90;69.80
43087;DHT22;28708;52.224;6.924;2022-09-01T10:27:31;30.00;71.60
43087;DHT22;28708;52.224;6.924;2022-09-01T10:32:37;31.50;67.00
43087;DHT22;28708;52.224;6.924;2022-09-01T10:35:06;30.40;67.40
43087;DHT22;28708;52.224;6.924;2022-09-01T10:37:33;28.70;71.40
43087;DHT22;28708;52.224;6.924;2022-09-01T10:40:12;27.30;73.40
43087;DHT22;28708;52.224;6.924;2022-09-01T10:42:40;29.00;72.90
43087;DHT22;28708;52.224;6.924;2022-09-01T10:45:28;29.60;70.10
43087;DHT22;28708;52.224;6.924;2022-09-01T10:47:54;28.60;70.00
43087;DHT22;28708;52.224;6.924;2022-09-01T10:50:30;26.60;74.30
43087;DHT22;28708;52.224;6.924;2022-09-01T10:53:03;25.10;76.00
43087;DHT22;28708;52.224;6.924;2022-09-01T10:55:43;25.60;74.90
43087;DHT22;28708;52.224;6.924;2022-09-01T11:01:04;24.70;78.50
43087;DHT22;28708;52.224;6.924;2022-09-01T11:03:36;26.50;75.00
43087;DHT22;28708;52.224;6.924;2022-09-01T11:06:06;28.90;71.80
43087;DHT22;28708;52.224;6.924;2022-09-01T11:13:51;30.30;66.60
43087;DHT22;28708;52.224;6.924;2022-09-01T11:16:26;28.30;70.40
43087;DHT22;28708;52.224;6.924;2022-09-01T11:18:53;29.80;68.50
43087;DHT22;28708;52.224;6.924;2022-09-01T11:21:26;30.70;66.80
43087;DHT22;28708;52.224;6.924;2022-09-01T11:26:56;29.80;68.60
43087;DHT22;28708;52.224;6.924;2022-09-01T11:29:54;28.10;71.00
43087;DHT22;28708;52.224;6.924;2022-09-01T11:32:24;28.10;71.30
43087;DHT22;28708;52.224;6.924;2022-09-01T11:34:54;28.00;71.70
43087;DHT22;28708;52.224;6.924;2022-09-01T11:37:23;28.80;69.70
43087;DHT22;28708;52.224;6.924;2022-09-01T11:39:52;29.10;69.20
43087;DHT22;28708;52.224;6.924;2022-09-01T11:42:20;29.20;69.30
43087;DHT22;28708;52.224;6.924;2022-09-01T11:47:36;26.90;72.40
43087;DHT22;28708;52.224;6.924;2022-09-01T11:50:27;25.80;74.90
43087;DHT22;28708;52.224;6.924;2022-09-01T11:52:57;25.70;75.10
43087;DHT22;28708;52.224;6.924;2022-09-01T11:58:01;25.60;76.50
43087;DHT22;28708;52.224;6.924;2022-09-01T12:00:33;25.50;74.20
43087;DHT22;28708;52.224;6.924;2022-09-01T12:03:18;25.60;75.30
43087;DHT22;28708;52.224;6.924;2022-09-01T12:05:45;25.60;75.10
43087;DHT22;28708;52.224;6.924;2022-09-01T12:08:16;25.70;76.60
43087;DHT22;28708;52.224;6.924;2022-09-01T12:10:43;25.80;74.90
43087;DHT22;28708;52.224;6.924;2022-09-01T12:13:21;25.80;75.30
43087;DHT22;28708;52.224;6.924;2022-09-01T12:15:54;25.70;73.80
43087;DHT22;28708;52.224;6.924;2022-09-01T12:18:32;25.40;74.80
43087;DHT22;28708;52.224;6.924;2022-09-01T12:21:01;25.30;74.70
43087;DHT22;28708;52.224;6.924;2022-09-01T12:25:55;25.20;74.50
43087;DHT22;28708;52.224;6.924;2022-09-01T12:28:27;25.30;74.70
43087;DHT22;28708;52.224;6.924;2022-09-01T12:30:58;25.60;73.50
43087;DHT22;28708;52.224;6.924;2022-09-01T12:33:25;25.80;73.70
43087;DHT22;28708;52.224;6.924;2022-09-01T12:36:33;25.50;72.80
43087;DHT22;28708;52.224;6.924;2022-09-01T12:39:20;25.60;72.70
43087;DHT22;28708;52.224;6.924;2022-09-01T12:44:53;25.60;74.70
43087;DHT22;28708;52.224;6.924;2022-09-01T12:52:49;25.30;75.90
43087;DHT22;28708;52.224;6.924;2022-09-01T12:55:25;25.00;76.50
43087;DHT22;28708;52.224;6.924;2022-09-01T12:57:53;24.90;75.60
43087;DHT22;28708;52.224;6.924;2022-09-01T13:00:20;25.00;76.00
43087;DHT22;28708;52.224;6.924;2022-09-01T13:05:29;25.50;73.30
43087;DHT22;28708;52.224;6.924;2022-09-01T13:07:58;26.00;71.60
43087;DHT22;28708;52.224;6.924;2022-09-01T13:10:26;26.10;73.10
43087;DHT22;28708;52.224;6.924;2022-09-01T13:12:54;26.30;73.20
43087;DHT22;28708;52.224;6.924;2022-09-01T13:15:22;26.00;73.60
43087;DHT22;28708;52.224;6.924;2022-09-01T13:17:51;26.20;73.50
43087;DHT22;28708;52.224;6.924;2022-09-01T13:20:18;26.30;72.60
43087;DHT22;28708;52.224;6.924;2022-09-01T13:22:44;26.50;71.30
43087;DHT22;28708;52.224;6.924;2022-09-01T13:25:15;26.40;70.40
43087;DHT22;28708;52.224;6.924;2022-09-01T13:27:42;26.20;71.40
43087;DHT22;28708;52.224;6.924;2022-09-01T13:30:11;26.30;71.40
43087;DHT22;28708;52.224;6.924;2022-09-01T13:32:38;26.20;71.40
43087;DHT22;28708;52.224;6.924;2022-09-01T13:35:04;26.50;71.80
43087;DHT22;28708;52.224;6.924;2022-09-01T13:37:30;26.50;72.10
43087;DHT22;28708;52.224;6.924;2022-09-01T13:39:56;26.60;72.00
43087;DHT22;28708;52.224;6.924;2022-09-01T13:42:22;26.80;71.50
43087;DHT22;28708;52.224;6.924;2022-09-01T13:44:47;26.50;70.90
43087;DHT22;28708;52.224;6.924;2022-09-01T13:47:13;26.50;70.00
43087;DHT22;28708;52.224;6.924;2022-09-01T13:49:39;26.40;72.70
43087;DHT22;28708;52.224;6.924;2022-09-01T13:52:05;26.40;71.40
43087;DHT22;28708;52.224;6.924;2022-09-01T13:54:31;26.70;71.00
43087;DHT22;28708;52.224;6.924;2022-09-01T13:56:57;26.90;71.30
43087;DHT22;28708;52.224;6.924;2022-09-01T13:59:23;27.20;70.90
43087;DHT22;28708;52.224;6.924;2022-09-01T14:01:49;27.20;70.20
43087;DHT22;28708;52.224;6.924;2022-09-01T14:04:15;26.90;70.80
43087;DHT22;28708;52.224;6.924;2022-09-01T14:06:43;26.70;70.50
43087;DHT22;28708;52.224;6.924;2022-09-01T14:09:10;27.00;70.70
43087;DHT22;28708;52.224;6.924;2022-09-01T14:11:37;27.00;71.50
43087;DHT22;28708;52.224;6.924;2022-09-01T14:14:03;27.00;71.40
43087;DHT22;28708;52.224;6.924;2022-09-01T14:16:29;26.40;72.00
43087;DHT22;28708;52.224;6.924;2022-09-01T14:18:55;26.30;71.30
43087;DHT22;28708;52.224;6.924;2022-09-01T14:21:21;25.70;71.90
43087;DHT22;28708;52.224;6.924;2022-09-01T14:23:47;25.20;72.70
43087;DHT22;28708;52.224;6.924;2022-09-01T14:26:14;24.90;73.00
43087;DHT22;28708;52.224;6.924;2022-09-01T14:28:42;24.60;75.10
43087;DHT22;28708;52.224;6.924;2022-09-01T14:31:15;24.60;74.00
43087;DHT22;28708;52.224;6.924;2022-09-01T14:33:43;25.20;73.60
43087;DHT22;28708;52.224;6.924;2022-09-01T14:36:19;26.00;73.00
43087;DHT22;28708;52.224;6.924;2022-09-01T14:38:47;26.10;72.40
43087;DHT22;28708;52.224;6.924;2022-09-01T14:41:17;26.30;71.00
43087;DHT22;28708;52.224;6.924;2022-09-01T14:43:51;26.50;72.00
43087;DHT22;28708;52.224;6.924;2022-09-01T14:46:17;26.70;70.80
43087;DHT22;28708;52.224;6.924;2022-09-01T14:48:46;26.60;70.20
43087;DHT22;28708;52.224;6.924;2022-09-01T14:51:30;26.70;69.60
43087;DHT22;28708;52.224;6.924;2022-09-01T14:53:56;26.60;71.20
43087;DHT22;28708;52.224;6.924;2022-09-01T14:56:23;26.90;70.30
43087;DHT22;28708;52.224;6.924;2022-09-01T14:58:51;26.80;70.40
43087;DHT22;28708;52.224;6.924;2022-09-01T15:01:23;26.70;71.60
43087;DHT22;28708;52.224;6.924;2022-09-01T15:03:50;26.60;70.80
43087;DHT22;28708;52.224;6.924;2022-09-01T15:06:18;26.70;70.90
43087;DHT22;28708;52.224;6.924;2022-09-01T15:08:45;26.50;70.90
43087;DHT22;28708;52.224;6.924;2022-09-01T15:11:18;25.70;70.50
43087;DHT22;28708;52.224;6.924;2022-09-01T15:13:46;25.10;73.30
43087;DHT22;28708;52.224;6.924;2022-09-01T15:16:14;25.10;73.00
43087;DHT22;28708;52.224;6.924;2022-09-01T15:18:40;25.60;73.00
43087;DHT22;28708;52.224;6.924;2022-09-01T15:21:06;25.70;73.10
43087;DHT22;28708;52.224;6.924;2022-09-01T15:23:34;25.80;72.20
43087;DHT22;28708;52.224;6.924;2022-09-01T15:26:00;25.60;72.30
43087;DHT22;28708;52.224;6.924;2022-09-01T15:28:25;25.50;71.90
43087;DHT22;28708;52.224;6.924;2022-09-01T15:30:52;25.70;71.30
43087;DHT22;28708;52.224;6.924;2022-09-01T15:33:19;25.80;71.60
43087;DHT22;28708;52.224;6.924;2022-09-01T15:35:45;25.80;71.50
43087;DHT22;28708;52.224;6.924;2022-09-01T15:38:13;25.90;70.70
43087;DHT22;28708;52.224;6.924;2022-09-01T15:40:41;25.80;71.10
43087;DHT22;28708;52.224;6.924;2022-09-01T15:43:08;25.90;71.10
43087;DHT22;28708;52.224;6.924;2022-09-01T15:45:34;25.80;70.10
43087;DHT22;28708;52.224;6.924;2022-09-01T15:48:00;25.80;70.60
43087;DHT22;28708;52.224;6.924;2022-09-01T15:50:26;25.80;70.90
43087;DHT22;28708;52.224;6.924;2022-09-01T15:52:58;25.60;70.50
43087;DHT22;28708;52.224;6.924;2022-09-01T15:55:36;25.60;71.10
43087;DHT22;28708;52.224;6.924;2022-09-01T15:58:02;25.60;70.30
43087;DHT22;28708;52.224;6.924;2022-09-01T16:00:28;25.60;70.30
43087;DHT22;28708;52.224;6.924;2022-09-01T16:02:55;25.60;70.50
43087;DHT22;28708;52.224;6.924;2022-09-01T16:05:23;25.50;71.10
43087;DHT22;28708;52.224;6.924;2022-09-01T16:07:50;25.30;70.30
43087;DHT22;28708;52.224;6.924;2022-09-01T16:10:16;25.30;71.20
43087;DHT22;28708;52.224;6.924;2022-09-01T16:12:43;25.40;70.30
43087;DHT22;28708;52.224;6.924;2022-09-01T16:15:16;25.30;70.90
43087;DHT22;28708;52.224;6.924;2022-09-01T16:18:05;25.30;71.00
43087;DHT22;28708;52.224;6.924;2022-09-01T16:23:15;25.00;72.50
43087;DHT22;28708;52.224;6.924;2022-09-01T16:25:42;24.90;72.40
43087;DHT22;28708;52.224;6.924;2022-09-01T16:28:30;24.80;72.20
43087;DHT22;28708;52.224;6.924;2022-09-01T16:33:36;24.50;72.80
43087;DHT22;28708;52.224;6.924;2022-09-01T16:39:19;24.40;73.20
43087;DHT22;28708;52.224;6.924;2022-09-01T16:41:58;24.30;73.00
43087;DHT22;28708;52.224;6.924;2022-09-01T16:44:33;24.30;73.40
43087;DHT22;28708;52.224;6.924;2022-09-01T16:49:41;24.30;72.50
43087;DHT22;28708;52.224;6.924;2022-09-01T16:52:29;24.20;72.70
43087;DHT22;28708;52.224;6.924;2022-09-01T17:00:40;24.00;73.00
43087;DHT22;28708;52.224;6.924;2022-09-01T17:03:16;23.90;72.90
43087;DHT22;28708;52.224;6.924;2022-09-01T17:08:31;23.80;74.20
43087;DHT22;28708;52.224;6.924;2022-09-01T17:11:49;23.60;74.60
43087;DHT22;28708;52.224;6.924;2022-09-01T17:14:21;23.40;74.30
43087;DHT22;28708;52.224;6.924;2022-09-01T17:17:06;23.40;74.40
43087;DHT22;28708;52.224;6.924;2022-09-01T17:19:33;23.40;74.90
43087;DHT22;28708;52.224;6.924;2022-09-01T17:22:05;23.30;75.30
43087;DHT22;28708;52.224;6.924;2022-09-01T17:24:48;23.30;75.30
43087;DHT22;28708;52.224;6.924;2022-09-01T17:29:47;23.10;75.70